地図

経路データ

SID SEASON NUMBER BASIN SUBBASIN NAME ISO_TIME NATURE LAT LON WMO_WIND WMO_PRES WMO_AGENCY TRACK_TYPE DIST2LAND LANDFALL IFLAG USA_AGENCY USA_ATCF_ID USA_LAT USA_LON USA_RECORD USA_STATUS USA_WIND USA_PRES USA_SSHS USA_R34_NE USA_R34_SE USA_R34_SW USA_R34_NW USA_R50_NE USA_R50_SE USA_R50_SW USA_R50_NW USA_R64_NE USA_R64_SE USA_R64_SW USA_R64_NW USA_POCI USA_ROCI USA_RMW USA_EYE TOKYO_LAT TOKYO_LON TOKYO_GRADE TOKYO_WIND TOKYO_PRES TOKYO_R50_DIR TOKYO_R50_LONG TOKYO_R50_SHORT TOKYO_R30_DIR TOKYO_R30_LONG TOKYO_R30_SHORT TOKYO_LAND CMA_LAT CMA_LON CMA_CAT CMA_WIND CMA_PRES HKO_LAT HKO_LON HKO_CAT HKO_WIND HKO_PRES NEWDELHI_LAT NEWDELHI_LON NEWDELHI_GRADE NEWDELHI_WIND NEWDELHI_PRES NEWDELHI_CI NEWDELHI_DP NEWDELHI_POCI REUNION_LAT REUNION_LON REUNION_TYPE REUNION_WIND REUNION_PRES REUNION_TNUM REUNION_CI REUNION_RMW REUNION_R34_NE REUNION_R34_SE REUNION_R34_SW REUNION_R34_NW REUNION_R50_NE REUNION_R50_SE REUNION_R50_SW REUNION_R50_NW REUNION_R64_NE REUNION_R64_SE REUNION_R64_SW REUNION_R64_NW BOM_LAT BOM_LON BOM_TYPE BOM_WIND BOM_PRES BOM_TNUM BOM_CI BOM_RMW BOM_R34_NE BOM_R34_SE BOM_R34_SW BOM_R34_NW BOM_R50_NE BOM_R50_SE BOM_R50_SW BOM_R50_NW BOM_R64_NE BOM_R64_SE BOM_R64_SW BOM_R64_NW BOM_ROCI BOM_POCI BOM_EYE BOM_POS_METHOD BOM_PRES_METHOD NADI_LAT NADI_LON NADI_CAT NADI_WIND NADI_PRES WELLINGTON_LAT WELLINGTON_LON WELLINGTON_WIND WELLINGTON_PRES DS824_LAT DS824_LON DS824_STAGE DS824_WIND DS824_PRES TD9636_LAT TD9636_LON TD9636_STAGE TD9636_WIND TD9636_PRES TD9635_LAT TD9635_LON TD9635_WIND TD9635_PRES TD9635_ROCI NEUMANN_LAT NEUMANN_LON NEUMANN_CLASS NEUMANN_WIND NEUMANN_PRES MLC_LAT MLC_LON MLC_CLASS MLC_WIND MLC_PRES USA_GUST BOM_GUST BOM_GUST_PER REUNION_GUST REUNION_GUST_PER USA_SEAHGT USA_SEARAD_NE USA_SEARAD_SE USA_SEARAD_SW USA_SEARAD_NW STORM_SPEED STORM_DIR
1910011S16065 1910 3 SI MM NOT_NAMED 1910-01-11 06:00:00 NR -16.0000 64.6000 main 861 771 __________O___ -1 -16.0000 64.6000 7 18 247
1910011S16065 1910 3 SI MM NOT_NAMED 1910-01-11 09:00:00 NR -16.3521 63.7383 main 756 667 __________P___ -1 -16.3521 63.7383 7 18 247
1910011S16065 1910 3 SI MM NOT_NAMED 1910-01-11 12:00:00 NR -16.7121 62.8703 main 667 563 __________P___ -1 -16.7121 62.8703 7 18 246
1910011S16065 1910 3 SI MM NOT_NAMED 1910-01-11 15:00:00 NR -17.0910 61.9922 main 563 461 __________P___ -1 -17.0910 61.9922 7 19 245
1910011S16065 1910 3 SI MM NOT_NAMED 1910-01-11 18:00:00 NR -17.5000 61.1000 main 461 360 __________O___ -1 -17.5000 61.1000 7 19 244
1910011S16065 1910 3 SI MM NOT_NAMED 1910-01-11 21:00:00 NR -17.9431 60.1952 main 360 260 __________P___ -1 -17.9431 60.1952 7 19 242
1910011S16065 1910 3 SI MM NOT_NAMED 1910-01-12 00:00:00 NR -18.3953 59.3043 main 253 167 __________P___ -1 -18.3953 59.3043 7 19 242
1910011S16065 1910 3 SI MM NOT_NAMED 1910-01-12 03:00:00 NR -18.8247 58.4610 main 167 100 __________P___ -1 -18.8247 58.4610 7 17 242
1910011S16065 1910 3 SI MM NOT_NAMED 1910-01-12 06:00:00 NR -19.2000 57.7000 main 100 78 __________O___ -1 -19.2000 57.7000 7 15 244
1910011S16065 1910 3 SI MM NOT_NAMED 1910-01-12 09:00:00 NR -19.4887 57.0497 main 85 84 __________P___ -1 -19.4887 57.0497 7 13 245
1910011S16065 1910 3 SI MM NOT_NAMED 1910-01-12 12:00:00 NR -19.7227 56.4853 main 113 113 __________P___ -1 -19.7227 56.4853 7 11 247
1910011S16065 1910 3 SI MM NOT_NAMED 1910-01-12 15:00:00 NR -19.9204 55.9784 main 126 100 __________P___ -1 -19.9204 55.9784 7 10 248
1910011S16065 1910 3 SI MM NOT_NAMED 1910-01-12 18:00:00 NR -20.1000 55.5000 main 100 84 __________O___ -1 -20.1000 55.5000 7 10 250
1910011S16065 1910 3 SI MM NOT_NAMED 1910-01-12 21:00:00 NR -20.2604 54.9941 main 84 84 __________P___ -1 -20.2604 54.9941 7 10 251
1910011S16065 1910 3 SI MM NOT_NAMED 1910-01-13 00:00:00 NR -20.4118 54.5108 main 106 106 __________P___ -1 -20.4118 54.5108 7 9 250
1910011S16065 1910 3 SI MM NOT_NAMED 1910-01-13 03:00:00 NR -20.5824 54.0472 main 136 136 __________P___ -1 -20.5824 54.0472 7 9 246
1910011S16065 1910 3 SI MM NOT_NAMED 1910-01-13 06:00:00 NR -20.8000 53.6000 main 169 169 __________O___ -1 -20.8000 53.6000 7 10 240
1910011S16065 1910 3 SI MM NOT_NAMED 1910-01-13 09:00:00 NR -21.0834 53.1285 main 217 217 __________P___ -1 -21.0834 53.1285 7 11 234
1910011S16065 1910 3 SI MM NOT_NAMED 1910-01-13 12:00:00 NR -21.4176 52.6755 main 261 261 __________P___ -1 -21.4176 52.6755 7 11 229
1910011S16065 1910 3 SI MM NOT_NAMED 1910-01-13 15:00:00 NR -21.7930 52.2597 main 310 310 __________P___ -1 -21.7930 52.2597 7 11 223
1910011S16065 1910 3 SI MM NOT_NAMED 1910-01-13 18:00:00 NR -22.2000 51.9000 main 362 361 __________O___ -1 -22.2000 51.9000 7 10 216
1910011S16065 1910 3 SI MM NOT_NAMED 1910-01-13 21:00:00 NR -22.6301 51.6094 main 361 351 __________P___ -1 -22.6301 51.6094 7 10 209
1910011S16065 1910 3 SI MM NOT_NAMED 1910-01-14 00:00:00 NR -23.0773 51.3752 main 359 351 __________P___ -1 -23.0773 51.3752 7 10 204
1910011S16065 1910 3 SI MM NOT_NAMED 1910-01-14 03:00:00 NR -23.5358 51.1785 main 353 340 __________P___ -1 -23.5358 51.1785 7 10 201
1910011S16065 1910 3 SI MM NOT_NAMED 1910-01-14 06:00:00 NR -24.0000 51.0000 main 342 __________O___ -1 -24.0000 51.0000 7 10 200

IBTrACS Databaseについて

本データベースは、米国NOAAが公開する1842年以降の世界の熱帯低気圧のベストトラックデータアーカイブInternational Best Track Archive for Climate Stewardship (IBTrACS)を、ウェブで閲覧しやすい形式に変換したものです。

最終更新日:2021-10-19